Time;durP1;ratioP1;P1;durP2;ratioP2;P2;SDS_P1;SDS_P2;PMS_P1;PMS_P2;Temp;Humidity;BMP_temperature;BMP_pressure;BME280_temperature;BME280_humidity;BME280_pressure;Samples;Min_cycle;Max_cycle;Signal;HPM_P1;HPM_P2
2023/09/15 00:00:49;;;;;;;;;;;;;;;13.06;42.82;101354.44;4949725;28;98297;-68
2023/09/15 00:03:15;;;;;;;;;;;;;;;13.06;42.91;101360.69;4935247;28;98449;-68
2023/09/15 00:05:42;;;;;;;;;;;;;;;13.05;42.62;101355.50;4919647;28;98337;-68
2023/09/15 00:08:09;;;;;;;;;;;;;;;13.05;42.91;101352.81;4921835;28;98388;-68
2023/09/15 00:10:35;;;;;;;;;;;;;;;13.06;42.75;101357.97;4935338;28;98198;-73
2023/09/15 00:13:02;;;;;;;;;;;;;;;13.07;42.56;101359.59;4950227;28;100923;-73
2023/09/15 00:15:28;;;;;;;;;;;;;;;13.03;42.80;101366.59;4950131;28;100842;-73
2023/09/15 00:17:55;;;;;;;;;;;;;;;12.99;42.97;101357.38;4936245;28;98328;-73
2023/09/15 00:20:21;;;;;;;;;;;;;;;12.96;43.06;101356.00;4939585;28;98098;-73
2023/09/15 00:22:49;;;;;;;;;;;;;;;12.94;42.85;101362.78;4919382;28;100155;-73
2023/09/15 00:25:26;;;;;;;;;;;;;;;12.89;42.86;101358.16;4905838;28;98098;-73
2023/09/15 00:27:56;;;;;;;;;;;;;;;12.85;42.79;101354.34;4921309;28;98192;-69
2023/09/15 00:30:23;;;;;;;;;;;;;;;12.81;42.94;101355.94;4922215;28;101748;-69
2023/09/15 00:32:50;;;;;;;;;;;;;;;12.77;42.87;101360.22;4936769;28;98343;-68
2023/09/15 00:35:17;;;;;;;;;;;;;;;12.71;42.96;101369.38;4937109;28;97991;-68
2023/09/15 00:37:46;;;;;;;;;;;;;;;12.62;43.06;101373.66;4920507;28;98168;-68
2023/09/15 00:40:19;;;;;;;;;;;;;;;12.57;42.76;101374.41;4946582;28;99706;-70
2023/09/15 00:42:46;;;;;;;;;;;;;;;12.52;43.08;101377.88;4902259;28;99083;-73
2023/09/15 00:45:16;;;;;;;;;;;;;;;12.48;42.87;101384.88;4920504;28;98925;-73
2023/09/15 00:47:51;;;;;;;;;;;;;;;12.42;42.87;101377.81;4950518;28;98920;-68
2023/09/15 00:50:20;;;;;;;;;;;;;;;12.41;43.16;101373.47;4919559;28;99321;-74
2023/09/15 00:52:54;;;;;;;;;;;;;;;12.40;43.15;101368.31;4952546;28;99532;-73
2023/09/15 00:55:21;;;;;;;;;;;;;;;12.40;42.94;101362.91;4920463;28;98522;-68
2023/09/15 00:57:52;;;;;;;;;;;;;;;12.38;43.12;101359.63;4923040;28;98072;-73
2023/09/15 01:00:19;;;;;;;;;;;;;;;12.36;42.97;101367.19;4936144;28;98330;-73
2023/09/15 01:02:46;;;;;;;;;;;;;;;12.32;43.06;101358.78;4949470;28;97945;-73
2023/09/15 01:05:23;;;;;;;;;;;;;;;12.29;43.10;101368.22;4930694;28;98216;-73
2023/09/15 01:07:53;;;;;;;;;;;;;;;12.29;43.01;101362.00;4935593;28;99652;-74
2023/09/15 01:10:20;;;;;;;;;;;;;;;12.27;43.12;101359.56;4907492;28;98274;-73
2023/09/15 01:12:48;;;;;;;;;;;;;;;12.26;42.91;101351.69;4943173;28;98561;-69
2023/09/15 01:15:17;;;;;;;;;;;;;;;12.26;42.95;101357.09;4924320;28;98186;-68
2023/09/15 01:18:11;;;;;;;;;;;;;;;12.21;43.00;101357.06;4941517;28;97931;-73
2023/09/15 01:21:16;;;;;;;;;;;;;;;12.17;43.10;101364.06;4938420;28;99809;-68
2023/09/15 01:23:59;;;;;;;;;;;;;;;12.12;43.00;101361.31;4933755;28;98455;-73
2023/09/15 01:27:02;;;;;;;;;;;;;;;12.07;42.93;101353.16;4951322;28;98244;-68
2023/09/15 01:29:54;;;;;;;;;;;;;;;12.04;42.96;101352.59;4950969;28;98348;-73
2023/09/15 01:32:20;;;;;;;;;;;;;;;12.04;42.95;101352.59;4933417;28;98381;-73
2023/09/15 01:34:50;;;;;;;;;;;;;;;12.06;42.99;101362.31;4935003;28;99579;-73
2023/09/15 01:37:17;;;;;;;;;;;;;;;12.06;43.02;101360.44;4937949;28;98033;-68
2023/09/15 01:39:43;;;;;;;;;;;;;;;12.04;43.25;101358.00;4925505;28;98075;-68
2023/09/15 01:42:10;;;;;;;;;;;;;;;12.02;43.14;101362.00;4955296;28;98695;-69
2023/09/15 01:44:36;;;;;;;;;;;;;;;11.97;42.93;101353.88;4937343;28;98184;-69
2023/09/15 01:47:04;;;;;;;;;;;;;;;11.93;43.09;101355.44;4904746;28;99650;-69
2023/09/15 01:49:31;;;;;;;;;;;;;;;11.91;43.05;101355.72;4924599;28;98284;-68
2023/09/15 01:51:57;;;;;;;;;;;;;;;11.87;43.05;101360.00;4938179;28;98899;-73
2023/09/15 01:54:25;;;;;;;;;;;;;;;11.83;42.91;101358.88;4923336;28;99020;-68
2023/09/15 01:56:52;;;;;;;;;;;;;;;11.78;43.15;101362.28;4935448;28;98235;-73
2023/09/15 01:59:18;;;;;;;;;;;;;;;11.72;43.02;101362.50;4936658;28;103333;-73
2023/09/15 02:01:45;;;;;;;;;;;;;;;11.68;43.10;101361.38;4907098;28;98300;-68
2023/09/15 02:04:11;;;;;;;;;;;;;;;11.65;43.05;101365.38;4920251;28;98247;-68
2023/09/15 02:06:39;;;;;;;;;;;;;;;11.62;43.47;101357.78;4923292;28;98020;-73
2023/09/15 02:09:05;;;;;;;;;;;;;;;11.60;42.95;101361.81;4917202;28;97927;-68
2023/09/15 02:11:32;;;;;;;;;;;;;;;11.59;42.98;101362.88;4920277;28;98410;-73
2023/09/15 02:13:59;;;;;;;;;;;;;;;11.55;43.06;101357.16;4952777;28;98390;-72
2023/09/15 02:16:25;;;;;;;;;;;;;;;11.53;43.00;101365.50;4918918;28;98204;-72
2023/09/15 02:18:52;;;;;;;;;;;;;;;11.52;43.23;101363.09;4938384;28;98283;-72
2023/09/15 02:21:18;;;;;;;;;;;;;;;11.50;43.11;101366.00;4936681;28;98096;-68
2023/09/15 02:23:45;;;;;;;;;;;;;;;11.48;43.11;101357.38;4936932;28;98698;-72
2023/09/15 02:26:11;;;;;;;;;;;;;;;11.49;42.86;101364.38;4935742;28;98248;-72
2023/09/15 02:28:37;;;;;;;;;;;;;;;11.49;43.07;101364.38;4922654;28;98296;-72
2023/09/15 02:31:04;;;;;;;;;;;;;;;11.48;42.91;101362.75;4921808;28;98327;-68
2023/09/15 02:33:31;;;;;;;;;;;;;;;11.48;43.07;101367.34;4920307;28;98162;-72
2023/09/15 02:35:58;;;;;;;;;;;;;;;11.45;43.14;101365.97;4925782;28;100031;-68
2023/09/15 02:38:24;;;;;;;;;;;;;;;11.44;43.11;101371.63;4920385;28;98640;-68
2023/09/15 02:40:52;;;;;;;;;;;;;;;11.41;42.74;101366.72;4935010;28;98387;-68
2023/09/15 02:43:18;;;;;;;;;;;;;;;11.37;42.72;101371.78;4949742;28;100163;-72
2023/09/15 02:45:45;;;;;;;;;;;;;;;11.34;42.82;101368.78;4933772;28;98314;-68
2023/09/15 02:48:12;;;;;;;;;;;;;;;11.31;42.77;101370.91;4908260;28;98047;-68
2023/09/15 02:50:43;;;;;;;;;;;;;;;11.29;43.24;101372.22;4919623;28;98207;-72
2023/09/15 02:53:11;;;;;;;;;;;;;;;11.26;43.08;101368.16;4921535;28;98199;-73
2023/09/15 02:55:40;;;;;;;;;;;;;;;11.26;43.06;101359.22;4920972;28;98102;-68
2023/09/15 02:58:06;;;;;;;;;;;;;;;11.25;43.43;101366.53;4952998;28;98969;-67
2023/09/15 03:00:33;;;;;;;;;;;;;;;11.22;42.99;101358.09;4900750;28;100329;-71
2023/09/15 03:03:00;;;;;;;;;;;;;;;11.19;43.24;101362.09;4933480;28;98581;-68
2023/09/15 03:05:26;;;;;;;;;;;;;;;11.16;43.04;101359.09;4916707;28;102238;-68
2023/09/15 03:07:53;;;;;;;;;;;;;;;11.12;43.02;101360.66;4949689;28;99323;-72
2023/09/15 03:10:19;;;;;;;;;;;;;;;11.10;43.06;101358.22;4903124;28;98531;-68
2023/09/15 03:12:46;;;;;;;;;;;;;;;11.10;43.29;101352.00;4917336;28;98440;-72
2023/09/15 03:15:12;;;;;;;;;;;;;;;11.10;43.18;101358.22;4918054;28;98315;-73
2023/09/15 03:17:41;;;;;;;;;;;;;;;11.07;43.51;101347.91;4920312;28;107884;-68
2023/09/15 03:20:15;;;;;;;;;;;;;;;11.03;42.99;101349.47;4952700;28;98303;-72
2023/09/15 03:22:42;;;;;;;;;;;;;;;10.99;43.42;101354.56;4947469;28;99517;-72
2023/09/15 03:25:09;;;;;;;;;;;;;;;10.96;43.01;101351.53;4950371;28;100100;-72
2023/09/15 03:27:36;;;;;;;;;;;;;;;10.93;43.25;101355.56;4948331;28;98232;-72
2023/09/15 03:30:06;;;;;;;;;;;;;;;10.89;43.42;101357.13;4914516;28;99962;-67
2023/09/15 03:32:33;;;;;;;;;;;;;;;10.86;43.36;101354.91;4919967;28;98410;-68
2023/09/15 03:34:59;;;;;;;;;;;;;;;10.84;43.54;101357.03;4920545;28;98345;-67
2023/09/15 03:37:26;;;;;;;;;;;;;;;10.81;43.42;101355.66;4934301;28;97944;-72
2023/09/15 03:39:53;;;;;;;;;;;;;;;10.78;43.15;101353.44;4953974;28;99381;-68
2023/09/15 03:42:20;;;;;;;;;;;;;;;10.76;43.20;101352.06;4920884;28;98404;-72
2023/09/15 03:44:46;;;;;;;;;;;;;;;10.73;43.05;101347.19;4919544;28;98485;-67
2023/09/15 03:47:13;;;;;;;;;;;;;;;10.71;43.17;101350.09;4924725;28;98458;-72
2023/09/15 03:49:39;;;;;;;;;;;;;;;10.68;43.03;101347.06;4933090;28;98395;-68
2023/09/15 03:52:06;;;;;;;;;;;;;;;10.65;43.24;101345.72;4934402;28;98375;-67
2023/09/15 03:54:33;;;;;;;;;;;;;;;10.60;43.27;101348.31;4921109;28;98658;-68
2023/09/15 03:56:59;;;;;;;;;;;;;;;10.56;43.35;101342.59;4907189;28;97928;-67
2023/09/15 03:59:27;;;;;;;;;;;;;;;10.53;43.18;101347.66;4920206;28;98327;-67
2023/09/15 04:01:54;;;;;;;;;;;;;;;10.49;42.93;101339.25;4940791;28;97946;-72
2023/09/15 04:04:21;;;;;;;;;;;;;;;10.47;43.34;101335.97;4938096;28;98165;-72
2023/09/15 04:06:48;;;;;;;;;;;;;;;10.44;43.33;101341.84;4915118;28;97933;-72
2023/09/15 04:09:14;;;;;;;;;;;;;;;10.41;43.11;101341.53;4919151;28;97940;-73
2023/09/15 04:11:40;;;;;;;;;;;;;;;10.39;42.76;101344.47;4933874;28;98101;-68
2023/09/15 04:14:07;;;;;;;;;;;;;;;10.38;43.30;101339.34;4909226;28;99919;-72
2023/09/15 04:16:35;;;;;;;;;;;;;;;10.38;43.08;101339.34;4936907;28;100350;-68
2023/09/15 04:19:02;;;;;;;;;;;;;;;10.41;42.97;101347.72;4952413;28;98347;-72
2023/09/15 04:21:28;;;;;;;;;;;;;;;10.44;43.58;101346.44;4939930;28;98140;-72
2023/09/15 04:23:55;;;;;;;;;;;;;;;10.41;43.41;101341.53;4922631;28;98328;-71
2023/09/15 04:26:21;;;;;;;;;;;;;;;10.38;42.99;101344.75;4933367;28;103616;-72
2023/09/15 04:28:48;;;;;;;;;;;;;;;10.36;43.08;101350.34;4906032;28;98319;-72
2023/09/15 04:31:14;;;;;;;;;;;;;;;10.35;43.13;101347.91;4920805;28;98151;-67
2023/09/15 04:33:41;;;;;;;;;;;;;;;10.34;42.89;101352.50;4921237;28;98130;-72
2023/09/15 04:36:07;;;;;;;;;;;;;;;10.34;43.43;101355.19;4907239;28;98282;-71
2023/09/15 04:38:34;;;;;;;;;;;;;;;10.31;43.54;101353.78;4924863;28;97971;-72
2023/09/15 04:41:02;;;;;;;;;;;;;;;10.29;43.20;101357.78;4936190;28;99510;-72
2023/09/15 04:43:30;;;;;;;;;;;;;;;10.27;43.27;101362.59;4950179;28;99891;-72
2023/09/15 04:45:57;;;;;;;;;;;;;;;10.25;43.05;101362.00;4955676;28;98074;-71
2023/09/15 04:48:23;;;;;;;;;;;;;;;10.24;42.99;101354.97;4921980;28;99496;-68
2023/09/15 04:50:49;;;;;;;;;;;;;;;10.26;42.95;101369.06;4921536;28;98299;-72
2023/09/15 04:53:19;;;;;;;;;;;;;;;10.26;43.19;101361.78;4925838;28;98116;-68
2023/09/15 04:55:49;;;;;;;;;;;;;;;10.25;43.06;101349.34;4927194;28;99714;-67
2023/09/15 04:58:16;;;;;;;;;;;;;;;10.25;43.31;101349.34;4919080;28;99614;-68
2023/09/15 05:00:42;;;;;;;;;;;;;;;10.26;43.21;101359.09;4918965;28;100056;-67
2023/09/15 05:03:09;;;;;;;;;;;;;;;10.25;43.12;101352.06;4938140;28;99901;-72
2023/09/15 05:05:36;;;;;;;;;;;;;;;10.26;43.13;101352.91;4933786;28;98260;-68
2023/09/15 05:08:02;;;;;;;;;;;;;;;10.25;43.13;101352.06;4918297;28;98120;-68
2023/09/15 05:10:29;;;;;;;;;;;;;;;10.29;42.86;101355.88;4898611;28;98896;-72
2023/09/15 05:12:56;;;;;;;;;;;;;;;10.29;43.45;101358.59;4898433;28;98730;-72
2023/09/15 05:15:22;;;;;;;;;;;;;;;10.30;43.16;101352.16;4930986;28;99299;-72
2023/09/15 05:17:49;;;;;;;;;;;;;;;10.33;43.11;101358.91;4951402;28;98233;-68
2023/09/15 05:20:15;;;;;;;;;;;;;;;10.33;43.15;101356.22;4903101;28;98334;-71
2023/09/15 05:22:42;;;;;;;;;;;;;;;10.30;42.82;101357.56;4916934;28;99746;-68
2023/09/15 05:25:08;;;;;;;;;;;;;;;10.31;42.85;101358.38;4919106;28;98091;-71
2023/09/15 05:27:35;;;;;;;;;;;;;;;10.35;43.41;101361.38;4921201;28;98084;-67
2023/09/15 05:30:03;;;;;;;;;;;;;;;10.39;43.05;101355.25;4917957;28;100096;-68
2023/09/15 05:32:29;;;;;;;;;;;;;;;10.45;43.29;101357.00;4908475;28;98500;-72
2023/09/15 05:34:56;;;;;;;;;;;;;;;10.52;43.35;101356.81;4921271;28;98261;-68
2023/09/15 05:37:23;;;;;;;;;;;;;;;10.56;42.93;101363.34;4958264;28;99771;-72
2023/09/15 05:39:49;;;;;;;;;;;;;;;10.58;42.76;101363.94;4943585;28;98745;-68
2023/09/15 05:42:19;;;;;;;;;;;;;;;10.63;42.95;101369.41;4954816;28;97952;-72
2023/09/15 05:44:45;;;;;;;;;;;;;;;10.72;43.13;101367.09;4920762;28;98047;-68
2023/09/15 05:47:11;;;;;;;;;;;;;;;10.84;43.11;101369.69;4902610;28;98858;-72
2023/09/15 05:49:38;;;;;;;;;;;;;;;10.95;43.00;101364.22;4918196;28;98011;-68
2023/09/15 05:52:04;;;;;;;;;;;;;;;11.05;42.83;101368.94;4925021;28;99076;-72
2023/09/15 05:54:31;;;;;;;;;;;;;;;11.14;42.68;101367.44;4902549;28;98318;-71
2023/09/15 05:56:57;;;;;;;;;;;;;;;11.24;42.90;101372.19;4927177;28;98135;-68
2023/09/15 05:59:24;;;;;;;;;;;;;;;11.33;42.87;101364.47;4953668;28;98724;-72
2023/09/15 06:01:51;;;;;;;;;;;;;;;11.41;42.63;101370.22;4908800;28;98082;-71
2023/09/15 06:04:17;;;;;;;;;;;;;;;11.50;42.71;101371.41;4953746;28;99111;-72
2023/09/15 06:06:44;;;;;;;;;;;;;;;11.60;42.75;101375.31;4905807;28;98089;-72
2023/09/15 06:09:11;;;;;;;;;;;;;;;11.68;42.68;101372.19;4950952;28;98630;-72
2023/09/15 06:11:37;;;;;;;;;;;;;;;11.76;42.70;101369.84;4923824;28;100460;-68
2023/09/15 06:14:03;;;;;;;;;;;;;;;11.85;42.68;101364.81;4924822;28;98423;-67
2023/09/15 06:16:33;;;;;;;;;;;;;;;11.92;42.94;101365.44;4924669;28;98128;-68
2023/09/15 06:19:01;;;;;;;;;;;;;;;12.01;42.62;101363.09;4902746;28;98480;-71
2023/09/15 06:21:27;;;;;;;;;;;;;;;12.10;42.68;101363.44;4953835;28;99803;-67
2023/09/15 06:23:55;;;;;;;;;;;;;;;12.20;42.63;101360.84;4921175;28;99856;-71
2023/09/15 06:26:21;;;;;;;;;;;;;;;12.33;42.60;101365.81;4926170;28;98299;-71
2023/09/15 06:28:48;;;;;;;;;;;;;;;12.48;42.65;101357.03;4921913;28;99699;-67
2023/09/15 06:31:15;;;;;;;;;;;;;;;12.61;42.46;101359.28;4942725;28;97999;-72
2023/09/15 06:33:41;;;;;;;;;;;;;;;12.75;42.46;101359.66;4936560;28;98290;-68
2023/09/15 06:36:08;;;;;;;;;;;;;;;12.99;42.41;101358.19;4919234;28;98103;-72
2023/09/15 06:38:35;;;;;;;;;;;;;;;13.29;42.43;101359.47;4920989;28;100003;-68
2023/09/15 06:41:02;;;;;;;;;;;;;;;13.57;41.93;101354.72;4902024;28;98067;-72
2023/09/15 06:43:28;;;;;;;;;;;;;;;14.21;41.34;101348.88;4900165;28;99444;-68
2023/09/15 06:45:55;;;;;;;;;;;;;;;14.44;41.62;101350.25;4939642;28;98398;-68
2023/09/15 06:48:21;;;;;;;;;;;;;;;14.35;41.80;101352.69;4919868;28;100596;-72
2023/09/15 06:50:47;;;;;;;;;;;;;;;14.32;42.13;101349.69;4935047;28;100423;-68
2023/09/15 06:53:13;;;;;;;;;;;;;;;14.35;42.07;101355.41;4922369;28;98924;-68
2023/09/15 06:55:40;;;;;;;;;;;;;;;14.42;42.02;101347.81;4917845;28;99269;-68
2023/09/15 06:58:06;;;;;;;;;;;;;;;14.65;41.91;101346.44;4899785;28;99430;-68
2023/09/15 07:00:32;;;;;;;;;;;;;;;14.78;42.17;101342.38;4955302;28;99412;-68
2023/09/15 07:02:59;;;;;;;;;;;;;;;14.93;42.34;101344.22;4926163;28;99179;-68
2023/09/15 07:05:25;;;;;;;;;;;;;;;15.01;42.11;101343.66;4921926;28;98647;-72
2023/09/15 07:07:51;;;;;;;;;;;;;;;15.19;42.31;101334.94;4931484;28;98736;-72
2023/09/15 07:10:18;;;;;;;;;;;;;;;15.43;42.07;101347.88;4918760;28;98364;-68
2023/09/15 07:12:44;;;;;;;;;;;;;;;15.40;42.33;101345.69;4936249;28;98932;-72
2023/09/15 07:15:13;;;;;;;;;;;;;;;15.47;42.19;101346.22;4908181;28;98156;-72
2023/09/15 07:17:39;;;;;;;;;;;;;;;15.55;42.15;101344.81;4951373;28;98386;-69
2023/09/15 07:20:06;;;;;;;;;;;;;;;15.59;41.93;101337.75;4924682;28;98161;-72
2023/09/15 07:22:33;;;;;;;;;;;;;;;15.67;42.26;101338.00;4932787;28;98177;-72
2023/09/15 07:24:59;;;;;;;;;;;;;;;15.75;42.07;101344.75;4903686;28;99321;-72
2023/09/15 07:27:26;;;;;;;;;;;;;;;15.82;42.16;101345.25;4941647;28;98611;-68
2023/09/15 07:29:52;;;;;;;;;;;;;;;15.91;42.25;101340.03;4953573;28;98924;-73
2023/09/15 07:32:19;;;;;;;;;;;;;;;16.03;42.09;101339.66;4938916;28;98327;-69
2023/09/15 07:34:45;;;;;;;;;;;;;;;16.14;42.17;101344.75;4919432;28;98220;-68
2023/09/15 07:37:11;;;;;;;;;;;;;;;16.28;41.90;101335.97;4947894;28;98245;-72
2023/09/15 07:39:38;;;;;;;;;;;;;;;16.44;41.99;101337.47;4922478;28;98116;-72
2023/09/15 07:42:08;;;;;;;;;;;;;;;16.61;41.81;101340.56;4922142;28;98071;-68
2023/09/15 07:44:35;;;;;;;;;;;;;;;16.80;41.57;101328.97;4945311;28;99233;-72
2023/09/15 07:47:04;;;;;;;;;;;;;;;17.01;41.67;101332.28;4936354;28;99718;-73
2023/09/15 07:49:30;;;;;;;;;;;;;;;17.23;41.55;101335.31;4921542;28;98686;-72
2023/09/15 07:51:57;;;;;;;;;;;;;;;17.52;41.36;101328.94;4921546;28;101176;-72
2023/09/15 07:54:24;;;;;;;;;;;;;;;17.83;41.19;101330.16;4925596;28;98290;-73
2023/09/15 07:56:51;;;;;;;;;;;;;;;18.20;40.95;101322.25;4950666;28;98153;-72
2023/09/15 07:59:18;;;;;;;;;;;;;;;18.61;40.65;101319.63;4937084;28;98222;-73
2023/09/15 08:01:45;;;;;;;;;;;;;;;19.12;40.15;101321.41;4922279;28;98300;-68
2023/09/15 08:04:12;;;;;;;;;;;;;;;19.66;40.08;101313.50;4908927;28;99101;-68
2023/09/15 08:06:38;;;;;;;;;;;;;;;20.19;39.75;101315.50;4946810;28;99541;-73
2023/09/15 08:09:04;;;;;;;;;;;;;;;20.70;39.60;101315.03;4950047;28;98815;-72
2023/09/15 08:11:37;;;;;;;;;;;;;;;21.23;39.26;101314.09;4919527;28;98228;-68
2023/09/15 08:14:03;;;;;;;;;;;;;;;21.77;38.98;101314.69;4949347;28;98048;-72
2023/09/15 08:16:31;;;;;;;;;;;;;;;22.25;39.00;101319.22;4903892;28;98275;-72
2023/09/15 08:18:58;;;;;;;;;;;;;;;22.72;38.99;101316.50;4939238;28;99022;-72
2023/09/15 08:21:25;;;;;;;;;;;;;;;23.24;38.92;101304.47;4929536;28;98696;-72
2023/09/15 08:23:51;;;;;;;;;;;;;;;23.75;38.61;101313.53;4956924;28;98170;-68
2023/09/15 08:26:17;;;;;;;;;;;;;;;24.27;38.57;101306.72;4912842;28;99149;-67
2023/09/15 08:28:44;;;;;;;;;;;;;;;24.80;38.28;101313.28;4931352;28;98471;-67
2023/09/15 08:31:10;;;;;;;;;;;;;;;25.32;37.94;101313.44;4909183;28;98226;-67
2023/09/15 08:33:37;;;;;;;;;;;;;;;25.83;37.90;101313.78;4925387;28;97851;-67
2023/09/15 08:36:04;;;;;;;;;;;;;;;26.32;37.69;101304.47;4941893;28;100008;-72
2023/09/15 08:38:32;;;;;;;;;;;;;;;26.80;37.59;101305.31;4909844;28;100241;-72
2023/09/15 08:41:19;;;;;;;;;;;;;;;27.27;37.65;101302.50;4941897;28;98171;-67
2023/09/15 08:43:45;;;;;;;;;;;;;;;27.79;37.36;101300.50;4929629;28;100688;-67
2023/09/15 08:46:11;;;;;;;;;;;;;;;28.21;37.15;101300.50;4942274;28;98143;-72
2023/09/15 08:48:42;;;;;;;;;;;;;;;28.61;37.02;101299.25;4941881;28;98366;-68
2023/09/15 08:51:08;;;;;;;;;;;;;;;28.99;37.35;101301.09;4928260;28;98395;-72
2023/09/15 08:53:36;;;;;;;;;;;;;;;29.42;36.87;101303.69;4957024;28;98563;-68
2023/09/15 08:56:02;;;;;;;;;;;;;;;29.88;37.06;101295.19;4931995;28;100345;-68
2023/09/15 08:58:29;;;;;;;;;;;;;;;30.36;36.86;101296.13;4958657;28;98534;-68
2023/09/15 09:00:55;;;;;;;;;;;;;;;30.83;36.60;101297.34;4913746;28;97920;-72
2023/09/15 09:03:23;;;;;;;;;;;;;;;31.22;36.69;101294.03;4953496;28;98283;-72
2023/09/15 09:05:49;;;;;;;;;;;;;;;31.58;36.64;101291.44;4924833;28;99902;-68
2023/09/15 09:08:18;;;;;;;;;;;;;;;31.89;36.76;101293.56;4944199;28;99056;-68
2023/09/15 09:10:45;;;;;;;;;;;;;;;32.15;36.32;101286.88;4926801;28;98046;-73
2023/09/15 09:13:12;;;;;;;;;;;;;;;32.43;36.71;101293.72;4910111;28;100046;-68
2023/09/15 09:15:38;;;;;;;;;;;;;;;32.59;36.45;101285.75;4956426;28;98229;-68
2023/09/15 09:18:15;;;;;;;;;;;;;;;32.62;36.45;101281.34;4906952;28;127994;-68
2023/09/15 09:20:41;;;;;;;;;;;;;;;32.67;36.77;101276.16;4930040;28;98673;-68
2023/09/15 09:23:07;;;;;;;;;;;;;;;32.93;36.90;101280.56;4929420;28;98028;-68
2023/09/15 09:25:35;;;;;;;;;;;;;;;33.41;36.25;101282.03;4947423;28;118867;-68
2023/09/15 09:28:03;;;;;;;;;;;;;;;33.82;35.63;101279.47;4957187;28;97882;-73
2023/09/15 09:30:29;;;;;;;;;;;;;;;34.18;35.97;101279.28;4940434;28;99051;-68
2023/09/15 09:32:58;;;;;;;;;;;;;;;34.79;35.42;101282.41;4953798;28;98145;-68
2023/09/15 09:35:25;;;;;;;;;;;;;;;35.11;35.26;101275.72;4936399;28;98317;-68
2023/09/15 09:37:52;;;;;;;;;;;;;;;35.15;35.48;101268.06;4954356;28;99400;-74
2023/09/15 09:40:22;;;;;;;;;;;;;;;35.44;35.39;101276.91;4951068;28;98948;-73
2023/09/15 09:42:49;;;;;;;;;;;;;;;35.92;34.98;101270.28;4936632;28;98072;-73
2023/09/15 09:45:16;;;;;;;;;;;;;;;36.37;34.98;101262.41;4924315;28;98040;-68
2023/09/15 09:47:45;;;;;;;;;;;;;;;36.69;34.37;101255.47;4938092;28;98358;-73
2023/09/15 09:50:11;;;;;;;;;;;;;;;36.80;34.52;101258.06;4927892;28;100284;-68
2023/09/15 09:52:38;;;;;;;;;;;;;;;36.67;34.79;101252.31;4925861;28;98263;-69
2023/09/15 09:55:05;;;;;;;;;;;;;;;36.52;35.10;101250.97;4953062;28;100085;-69
2023/09/15 09:57:32;;;;;;;;;;;;;;;36.55;35.32;101250.91;4905539;28;99439;-69
2023/09/15 09:59:58;;;;;;;;;;;;;;;36.70;35.14;101250.63;4935521;28;105173;-74
2023/09/15 10:02:26;;;;;;;;;;;;;;;36.95;34.69;101253.81;4938198;28;98049;-73
2023/09/15 10:04:53;;;;;;;;;;;;;;;37.22;34.79;101247.25;4956158;28;100632;-74
2023/09/15 10:07:19;;;;;;;;;;;;;;;37.38;34.86;101236.09;4921916;28;98478;-74
2023/09/15 10:09:45;;;;;;;;;;;;;;;37.53;34.97;101233.75;4919868;28;98427;-68
2023/09/15 10:12:13;;;;;;;;;;;;;;;37.58;34.48;101241.72;4952899;28;99214;-69
2023/09/15 10:14:40;;;;;;;;;;;;;;;37.76;34.67;101230.03;4925368;28;97917;-69
2023/09/15 10:17:06;;;;;;;;;;;;;;;38.10;34.35;101218.41;4923522;28;101068;-74
2023/09/15 10:19:32;;;;;;;;;;;;;;;38.38;33.83;101227.41;4941081;28;98488;-69
2023/09/15 10:22:00;;;;;;;;;;;;;;;38.51;34.24;101214.16;4923205;28;98656;-74
2023/09/15 10:24:27;;;;;;;;;;;;;;;38.61;33.85;101218.72;4909766;28;98488;-69
2023/09/15 10:26:52;;;;;;;;;;;;;;;38.92;33.68;101216.28;4939375;28;98097;-74
2023/09/15 10:29:19;;;;;;;;;;;;;;;38.90;33.44;101217.97;4921759;28;114427;-69
2023/09/15 10:31:45;;;;;;;;;;;;;;;38.41;34.26;101218.84;4920925;28;98260;-69
2023/09/15 10:34:11;;;;;;;;;;;;;;;38.24;34.00;101208.81;4935986;28;98310;-74
2023/09/15 10:36:42;;;;;;;;;;;;;;;38.44;34.24;101205.94;4902493;28;98181;-69
2023/09/15 10:39:17;;;;;;;;;;;;;;;38.70;33.75;101204.00;4923023;28;99406;-74
2023/09/15 10:41:43;;;;;;;;;;;;;;;38.95;33.33;101200.53;4926713;28;98053;-69
2023/09/15 10:44:09;;;;;;;;;;;;;;;39.09;33.69;101202.94;4921198;28;99101;-74
2023/09/15 10:46:39;;;;;;;;;;;;;;;39.22;33.37;101205.75;4923641;28;98033;-74
2023/09/15 10:49:18;;;;;;;;;;;;;;;39.09;33.45;101207.78;4953172;28;98125;-69
2023/09/15 10:51:55;;;;;;;;;;;;;;;38.82;33.52;101200.47;4899770;28;98238;-68
2023/09/15 10:54:23;;;;;;;;;;;;;;;38.40;34.14;101188.31;4938015;28;98533;-74
2023/09/15 10:56:49;;;;;;;;;;;;;;;38.07;34.46;101191.94;4933965;28;98860;-75
2023/09/15 10:59:19;;;;;;;;;;;;;;;37.73;34.58;101189.56;4912937;28;98227;-74
2023/09/15 11:01:45;;;;;;;;;;;;;;;37.57;34.91;101176.28;4919870;28;97962;-74
2023/09/15 11:04:13;;;;;;;;;;;;;;;37.68;34.96;101187.25;4936346;28;98424;-69
2023/09/15 11:06:39;;;;;;;;;;;;;;;37.80;34.37;101192.16;4927286;28;98155;-68
2023/09/15 11:09:06;;;;;;;;;;;;;;;37.98;33.90;101179.75;4937571;28;98738;-75
2023/09/15 11:11:32;;;;;;;;;;;;;;;37.99;33.45;101186.94;4923087;28;98058;-69
2023/09/15 11:14:00;;;;;;;;;;;;;;;37.87;33.47;101185.63;4938948;28;99183;-69
2023/09/15 11:16:27;;;;;;;;;;;;;;;37.84;33.94;101178.81;4921144;28;98288;-74
2023/09/15 11:18:56;;;;;;;;;;;;;;;37.78;33.92;101182.59;4919390;28;98026;-69
2023/09/15 11:21:23;;;;;;;;;;;;;;;36.85;34.09;101173.34;4900424;28;98270;-75
2023/09/15 11:23:51;;;;;;;;;;;;;;;36.93;33.74;101168.38;4909779;28;98601;-75
2023/09/15 11:26:18;;;;;;;;;;;;;;;36.80;33.71;101174.63;4919667;28;98644;-75
2023/09/15 11:28:45;;;;;;;;;;;;;;;36.53;34.02;101162.75;4920273;28;98296;-69
2023/09/15 11:31:11;;;;;;;;;;;;;;;35.47;34.87;101168.81;4900823;28;98177;-74
2023/09/15 11:33:43;;;;;;;;;;;;;;;34.95;35.44;101166.25;4951680;28;98253;-69
2023/09/15 11:36:10;;;;;;;;;;;;;;;34.15;35.90;101166.25;4937287;28;103486;-74
2023/09/15 11:38:38;;;;;;;;;;;;;;;34.18;35.44;101157.00;4937090;28;98015;-69
2023/09/15 11:41:06;;;;;;;;;;;;;;;34.03;35.83;101160.34;4923305;28;98242;-68
2023/09/15 11:43:32;;;;;;;;;;;;;;;32.95;36.88;101154.56;4919334;28;98882;-69
2023/09/15 11:45:58;;;;;;;;;;;;;;;31.92;37.39;101152.66;4922189;28;98599;-67
2023/09/15 11:48:24;;;;;;;;;;;;;;;30.94;38.09;101144.38;4923584;28;98753;-70
2023/09/15 11:50:50;;;;;;;;;;;;;;;30.31;38.14;101138.81;4917830;28;102784;-70
2023/09/15 11:53:26;;;;;;;;;;;;;;;31.85;36.61;101135.94;4948974;28;98861;-65
2023/09/15 11:55:53;;;;;;;;;;;;;;;32.56;35.57;101137.91;4922858;28;98264;-71
2023/09/15 11:58:20;;;;;;;;;;;;;;;32.87;35.79;101137.00;4923576;28;98145;-66
2023/09/15 12:00:46;;;;;;;;;;;;;;;32.81;35.60;101135.03;4923469;28;98315;-72
2023/09/15 12:03:13;;;;;;;;;;;;;;;33.47;35.52;101132.38;4938137;28;97924;-72
2023/09/15 12:05:40;;;;;;;;;;;;;;;33.74;35.04;101137.38;4922310;28;98185;-72
2023/09/15 12:08:06;;;;;;;;;;;;;;;33.69;35.35;101138.63;4951769;28;99618;-66
2023/09/15 12:10:32;;;;;;;;;;;;;;;33.36;36.15;101128.81;4948234;28;98291;-66
2023/09/15 12:12:59;;;;;;;;;;;;;;;33.49;35.82;101127.19;4920818;28;98282;-66
2023/09/15 12:15:26;;;;;;;;;;;;;;;32.99;36.00;101121.84;4952448;28;98146;-66
2023/09/15 12:17:53;;;;;;;;;;;;;;;33.35;35.88;101113.28;4951188;28;98407;-72
2023/09/15 12:20:23;;;;;;;;;;;;;;;33.20;35.97;101110.56;4918444;28;98136;-67
2023/09/15 12:22:53;;;;;;;;;;;;;;;32.30;36.79;101108.41;4921795;28;98336;-66
2023/09/15 12:25:20;;;;;;;;;;;;;;;32.59;36.16;101104.41;4948189;28;98127;-72
2023/09/15 12:27:47;;;;;;;;;;;;;;;32.28;36.61;101102.47;4917291;28;98798;-72
2023/09/15 12:30:14;;;;;;;;;;;;;;;32.47;36.53;101096.47;4923106;28;98300;-68
2023/09/15 12:32:43;;;;;;;;;;;;;;;32.44;36.44;101109.22;4921695;28;98811;-72
2023/09/15 12:35:11;;;;;;;;;;;;;;;31.20;37.11;101105.09;4914064;28;98900;-71
2023/09/15 12:37:44;;;;;;;;;;;;;;;30.43;37.46;101098.78;4902955;28;98036;-66